Time;durP1;ratioP1;P1;durP2;ratioP2;P2;SDS_P1;SDS_P2;PMS_P1;PMS_P2;Temp;Humidity;BMP_temperature;BMP_pressure;BME280_temperature;BME280_humidity;BME280_pressure;Samples;Min_cycle;Max_cycle;Signal;HPM_P1;HPM_P2
2023/02/01 00:00:12;;;;;;;0.00;0.00;;;;;;;3.22;100.00;101431.53;4881654;29;20432;-76
2023/02/01 00:02:40;;;;;;;0.00;0.00;;;;;;;3.21;100.00;101406.34;4892228;29;20032;-76
2023/02/01 00:05:08;;;;;;;0.00;0.00;;;;;;;3.21;100.00;101403.66;4880961;29;20043;-76
2023/02/01 00:07:34;;;;;;;0.00;0.00;;;;;;;3.22;100.00;101409.91;4898295;29;20483;-76
2023/02/01 00:09:59;;;;;;;0.00;0.00;;;;;;;3.15;100.00;101407.13;4892787;29;20047;-75
2023/02/01 00:12:25;;;;;;;0.00;0.00;;;;;;;3.11;100.00;101392.31;4901667;29;20068;-76
2023/02/01 00:14:50;;;;;;;0.08;0.08;;;;;;;3.12;100.00;101410.22;4866159;29;20040;-76
2023/02/01 00:17:16;;;;;;;0.00;0.00;;;;;;;3.15;100.00;101420.63;4878550;29;20265;-77
2023/02/01 00:19:41;;;;;;;0.00;0.00;;;;;;;3.11;100.00;101398.59;4886502;29;20036;-75
2023/02/01 00:22:06;;;;;;;0.00;0.00;;;;;;;3.14;100.00;101400.06;4885394;29;20020;-75
2023/02/01 00:24:32;;;;;;;0.00;0.00;;;;;;;3.11;100.00;101397.72;4891946;29;20115;-76
2023/02/01 00:26:57;;;;;;;0.00;0.00;;;;;;;3.11;100.00;101395.03;4851701;29;20424;-77
2023/02/01 00:29:23;;;;;;;0.00;0.00;;;;;;;3.09;100.00;101384.41;4904339;29;20573;-75
2023/02/01 00:31:51;;;;;;;0.00;0.00;;;;;;;3.10;100.00;101385.25;4893540;29;20048;-75
2023/02/01 00:34:17;;;;;;;0.00;0.00;;;;;;;3.15;100.00;101388.19;4888300;29;20028;-75
2023/02/01 00:36:43;;;;;;;0.00;0.00;;;;;;;3.16;100.00;101400.69;4891503;29;20039;-76
2023/02/01 00:39:10;;;;;;;0.00;0.00;;;;;;;3.13;100.00;101384.88;4876289;29;20053;-75
2023/02/01 00:41:36;;;;;;;0.00;0.00;;;;;;;3.14;100.00;101378.44;4896615;29;20036;-75
2023/02/01 00:44:02;;;;;;;0.00;0.00;;;;;;;3.15;100.00;101382.78;4883067;29;20038;-75
2023/02/01 00:46:27;;;;;;;0.00;0.00;;;;;;;3.11;100.00;101392.31;4881299;29;20063;-75
2023/02/01 00:48:53;;;;;;;0.00;0.00;;;;;;;3.12;100.00;101399.41;4901084;29;20064;-75
2023/02/01 00:51:22;;;;;;;0.00;0.00;;;;;;;3.11;100.00;101411.25;4869529;29;20124;-75
2023/02/01 00:53:48;;;;;;;0.00;0.00;;;;;;;3.06;100.00;101408.28;4897138;28;20132;-75
2023/02/01 00:56:13;;;;;;;0.00;0.00;;;;;;;2.93;100.00;101399.00;4899242;29;20832;-76
2023/02/01 00:58:39;;;;;;;0.00;0.00;;;;;;;2.85;100.00;101384.78;4899240;29;20036;-75
2023/02/01 01:01:06;;;;;;;0.00;0.00;;;;;;;2.99;100.00;101393.88;4896677;29;20100;-76
2023/02/01 01:03:35;;;;;;;0.00;0.00;;;;;;;2.99;100.00;101393.88;4889522;29;20024;-76
2023/02/01 01:06:03;;;;;;;0.00;0.00;;;;;;;2.92;100.00;101389.25;4905353;29;20035;-76
2023/02/01 01:08:29;;;;;;;0.00;0.00;;;;;;;2.88;100.00;101379.84;4920760;29;20132;-76
2023/02/01 01:10:54;;;;;;;0.00;0.00;;;;;;;2.87;100.00;101372.75;4918464;29;20375;-75
2023/02/01 01:13:20;;;;;;;0.05;0.05;;;;;;;2.87;100.00;101380.84;4894936;29;20419;-76
2023/02/01 01:15:45;;;;;;;0.00;0.00;;;;;;;2.85;100.00;101380.22;4876616;29;20024;-74
2023/02/01 01:18:10;;;;;;;0.00;0.00;;;;;;;2.84;100.00;101370.44;4873115;29;20033;-74
2023/02/01 01:20:39;;;;;;;0.00;0.00;;;;;;;2.85;100.00;101372.13;4901885;29;20032;-76
2023/02/01 01:23:05;;;;;;;0.00;0.00;;;;;;;2.93;100.00;101361.16;4901565;29;20771;-76
2023/02/01 01:25:31;;;;;;;0.00;0.00;;;;;;;2.91;100.00;101349.72;4895391;29;20119;-74
2023/02/01 01:27:57;;;;;;;0.00;0.00;;;;;;;2.96;100.00;101358.13;4894317;29;20111;-75
2023/02/01 01:30:24;;;;;;;0.00;0.00;;;;;;;2.92;100.00;101364.91;4906860;29;20029;-75
2023/02/01 01:32:49;;;;;;;0.10;0.10;;;;;;;2.95;100.00;101367.25;4893117;29;20063;-75
2023/02/01 01:35:15;;;;;;;0.00;0.00;;;;;;;2.96;100.00;101363.50;4904247;29;20063;-74
2023/02/01 01:37:40;;;;;;;0.00;0.00;;;;;;;2.88;100.00;101350.13;4903068;29;20497;-76
2023/02/01 01:40:09;;;;;;;0.00;0.00;;;;;;;2.82;100.00;101348.19;4897793;29;20035;-75
2023/02/01 01:42:40;;;;;;;0.00;0.00;;;;;;;2.81;100.00;101351.91;4879804;29;22020;-74
2023/02/01 01:45:20;;;;;;;0.00;0.00;;;;;;;2.77;100.00;101353.31;4905493;29;20032;-74
2023/02/01 01:47:51;;;;;;;0.00;0.00;;;;;;;2.70;100.00;101358.66;4889093;29;20147;-75
2023/02/01 01:50:23;;;;;;;0.00;0.00;;;;;;;2.70;100.00;101363.22;4898155;29;20479;-75
2023/02/01 01:52:51;;;;;;;0.00;0.00;;;;;;;2.81;100.00;101370.81;4895145;29;20032;-75
2023/02/01 01:55:20;;;;;;;0.10;0.10;;;;;;;2.89;100.00;101380.66;4908656;29;20057;-75
2023/02/01 01:57:53;;;;;;;0.10;0.10;;;;;;;2.92;100.00;101375.72;4919511;29;20035;-74
2023/02/01 02:00:20;;;;;;;0.00;0.00;;;;;;;2.95;100.00;101383.44;4907512;29;20470;-74
2023/02/01 02:02:48;;;;;;;0.00;0.00;;;;;;;2.98;100.00;101382.25;4916638;29;20035;-75
2023/02/01 02:05:17;;;;;;;0.00;0.00;;;;;;;2.97;100.00;101369.75;4894284;29;20024;-75
2023/02/01 02:07:46;;;;;;;0.00;0.00;;;;;;;3.04;100.00;101365.25;4879848;29;20396;-76
2023/02/01 02:10:13;;;;;;;0.00;0.00;;;;;;;3.04;100.00;101369.78;4918015;29;20027;-75
2023/02/01 02:12:42;;;;;;;0.00;0.00;;;;;;;3.03;100.00;101370.84;4877969;29;20029;-75
2023/02/01 02:15:13;;;;;;;0.00;0.00;;;;;;;3.05;100.00;101363.38;4880289;29;20118;-76
2023/02/01 02:18:00;;;;;;;0.00;0.00;;;;;;;3.04;100.00;101359.84;4890121;29;20091;-74
2023/02/01 02:21:05;;;;;;;0.00;0.00;;;;;;;3.03;100.00;101360.88;4907295;29;20025;-75
2023/02/01 02:23:34;;;;;;;0.00;0.00;;;;;;;3.01;100.00;101359.38;4874198;29;20039;-75
2023/02/01 02:26:21;;;;;;;0.00;0.00;;;;;;;2.99;100.00;101358.75;4905493;29;20024;-74
2023/02/01 02:29:05;;;;;;;0.00;0.00;;;;;;;3.01;100.00;101359.38;4891449;29;20378;-75
2023/02/01 02:31:58;;;;;;;0.00;0.00;;;;;;;3.02;100.00;101361.88;4896601;29;20767;-75
2023/02/01 02:34:32;;;;;;;0.00;0.00;;;;;;;3.10;100.00;101369.03;4899195;29;20028;-74
2023/02/01 02:37:16;;;;;;;;;;;;;;;3.21;100.00;101371.22;4903134;29;20080;-74
2023/02/01 02:39:56;;;;;;;0.00;0.00;;;;;;;3.36;100.00;101373.00;4930088;29;19949;-73
2023/02/01 02:48:53;;;;;;;0.00;0.00;;;;;;;3.97;98.57;101375.97;4900050;29;20139;-78
2023/02/01 02:54:46;;;;;;;0.00;0.00;;;;;;;4.16;96.89;101370.84;4890221;29;20080;-77
2023/02/01 03:05:51;;;;;;;0.08;0.08;;;;;;;4.29;95.67;101373.66;4893117;29;20055;-78
2023/02/01 03:08:19;;;;;;;0.00;0.00;;;;;;;4.34;95.89;101376.56;4899306;29;20036;-77
2023/02/01 03:11:07;;;;;;;0.00;0.00;;;;;;;4.39;95.53;101377.84;4905541;29;20020;-78
2023/02/01 03:13:49;;;;;;;0.00;0.00;;;;;;;4.47;95.49;101377.69;4911581;29;20028;-79
2023/02/01 03:16:36;;;;;;;0.00;0.00;;;;;;;4.63;94.39;101388.16;4889388;29;20028;-76
2023/02/01 03:19:17;;;;;;;0.00;0.00;;;;;;;4.70;94.33;101391.72;4886892;29;20075;-77
2023/02/01 03:21:45;;;;;;;0.00;0.00;;;;;;;4.74;93.56;101380.47;4906152;29;20035;-77
2023/02/01 03:24:43;;;;;;;0.00;0.00;;;;;;;4.78;93.99;101370.91;4911799;29;20031;-77
2023/02/01 03:27:18;;;;;;;0.00;0.00;;;;;;;4.74;93.91;101369.63;4881630;29;20414;-76
2023/02/01 03:29:54;;;;;;;0.00;0.00;;;;;;;4.62;93.91;101364.81;4910818;29;20032;-76
2023/02/01 03:32:20;;;;;;;0.00;0.00;;;;;;;4.62;93.88;101362.09;4896444;29;20020;-76
2023/02/01 03:34:47;;;;;;;0.00;0.00;;;;;;;4.70;93.96;101364.63;4862340;29;20032;-76
2023/02/01 03:37:19;;;;;;;0.00;0.00;;;;;;;4.79;94.02;101372.56;4888343;29;20534;-74
2023/02/01 03:40:00;;;;;;;0.00;0.00;;;;;;;4.88;93.92;101365.94;4904777;29;20116;-74
2023/02/01 03:42:51;;;;;;;0.00;0.00;;;;;;;4.88;92.72;101368.63;4904385;29;20023;-74
2023/02/01 03:45:27;;;;;;;0.00;0.00;;;;;;;4.92;92.82;101367.19;4887062;29;20085;-76
2023/02/01 03:47:57;;;;;;;0.00;0.00;;;;;;;4.92;91.86;101364.47;4894640;29;20365;-75
2023/02/01 03:50:27;;;;;;;0.00;0.00;;;;;;;4.90;91.23;101369.25;4908098;29;20028;-76
2023/02/01 03:52:56;;;;;;;0.00;0.00;;;;;;;4.83;91.93;101369.25;4881542;29;20040;-77
2023/02/01 03:55:23;;;;;;;0.00;0.00;;;;;;;4.70;92.20;101356.50;4913477;29;20384;-77
2023/02/01 03:57:56;;;;;;;0.00;0.00;;;;;;;4.58;91.92;101346.44;4896781;29;20723;-76
2023/02/01 04:00:24;;;;;;;0.00;0.00;;;;;;;4.66;91.38;101357.94;4918438;29;20019;-76
2023/02/01 04:02:51;;;;;;;0.00;0.00;;;;;;;4.61;91.99;101349.56;4900402;29;20028;-74
2023/02/01 04:05:16;;;;;;;0.00;0.00;;;;;;;4.44;91.77;101349.13;4917084;29;20035;-74
2023/02/01 04:07:42;;;;;;;0.00;0.00;;;;;;;4.24;91.69;101346.31;4922314;29;20027;-73
2023/02/01 04:10:09;;;;;;;0.00;0.00;;;;;;;4.07;92.64;101350.41;4925212;29;20114;-74
2023/02/01 04:12:34;;;;;;;0.00;0.00;;;;;;;3.88;93.79;101339.25;4912114;29;20664;-77
2023/02/01 04:14:59;;;;;;;0.00;0.00;;;;;;;3.78;94.56;101333.38;4905990;29;20147;-75
2023/02/01 04:17:25;;;;;;;0.00;0.00;;;;;;;3.75;94.88;101317.53;4895635;29;20039;-76
2023/02/01 04:19:50;;;;;;;0.00;0.00;;;;;;;3.81;94.56;101332.97;4920554;29;20043;-76
2023/02/01 04:22:16;;;;;;;0.00;0.00;;;;;;;3.66;94.75;101314.16;4914105;29;20036;-76
2023/02/01 04:24:41;;;;;;;0.00;0.00;;;;;;;3.61;95.43;101322.88;4908005;29;20106;-75
2023/02/01 04:27:07;;;;;;;0.00;0.00;;;;;;;3.47;95.68;101312.97;4921792;29;20038;-76
2023/02/01 04:29:32;;;;;;;0.08;0.08;;;;;;;3.42;95.60;101307.34;4914011;29;20055;-75
2023/02/01 04:31:58;;;;;;;0.00;0.00;;;;;;;3.42;96.55;101323.56;4921395;29;20145;-76
2023/02/01 04:34:24;;;;;;;0.00;0.00;;;;;;;3.44;95.90;101321.50;4895017;29;20031;-75
2023/02/01 04:36:50;;;;;;;0.00;0.00;;;;;;;3.40;96.10;101325.63;4912213;29;20063;-74
2023/02/01 04:39:16;;;;;;;0.00;0.00;;;;;;;3.38;96.15;101322.28;4885156;29;20430;-75
2023/02/01 04:41:41;;;;;;;0.00;0.00;;;;;;;3.31;96.70;101323.06;4917647;29;20111;-76
2023/02/01 04:44:14;;;;;;;0.00;0.00;;;;;;;3.23;96.00;101330.50;4892571;29;20399;-75
2023/02/01 04:46:39;;;;;;;0.10;0.10;;;;;;;3.27;96.49;101343.41;4924483;29;20534;-75
2023/02/01 04:49:04;;;;;;;0.00;0.00;;;;;;;3.29;97.18;101341.34;4906030;29;20107;-74
2023/02/01 04:51:30;;;;;;;0.00;0.00;;;;;;;3.22;97.07;101339.63;4894208;29;20079;-74
2023/02/01 04:53:55;;;;;;;0.00;0.00;;;;;;;3.18;96.85;101344.56;4895893;29;20108;-75
2023/02/01 04:56:21;;;;;;;0.00;0.00;;;;;;;3.16;97.02;101338.53;4857888;29;20044;-74
2023/02/01 04:58:47;;;;;;;0.00;0.00;;;;;;;3.13;97.36;101328.13;4885792;29;20033;-75
2023/02/01 05:01:12;;;;;;;0.10;0.10;;;;;;;3.13;97.76;101331.66;4891704;29;20400;-74
2023/02/01 05:03:37;;;;;;;0.10;0.10;;;;;;;3.08;98.03;101327.84;4877457;29;20099;-74
2023/02/01 05:06:04;;;;;;;0.00;0.00;;;;;;;2.97;97.57;101316.53;4859978;29;20028;-74
2023/02/01 05:08:31;;;;;;;0.00;0.00;;;;;;;3.05;98.60;101345.31;4897039;29;20036;-76
2023/02/01 05:10:56;;;;;;;0.03;0.03;;;;;;;2.97;98.03;101348.94;4875162;29;20658;-76
2023/02/01 05:16:06;;;;;;;0.00;0.00;;;;;;;2.95;99.44;101344.78;4895707;29;20044;-75
2023/02/01 05:18:31;;;;;;;0.00;0.00;;;;;;;3.02;100.00;101350.25;4908380;29;20036;-74
2023/02/01 05:20:57;;;;;;;0.00;0.00;;;;;;;3.22;99.70;101345.84;4913628;29;20450;-75
2023/02/01 05:23:22;;;;;;;0.00;0.00;;;;;;;3.38;99.50;101355.56;4888118;29;20039;-76
2023/02/01 05:25:48;;;;;;;0.00;0.00;;;;;;;3.47;99.77;101345.44;4899041;29;20394;-76
2023/02/01 05:28:13;;;;;;;0.00;0.00;;;;;;;3.53;99.45;101347.34;4859194;29;20486;-76
2023/02/01 05:30:39;;;;;;;0.00;0.00;;;;;;;3.65;98.60;101355.75;4890778;29;20472;-75
2023/02/01 05:33:04;;;;;;;0.00;0.00;;;;;;;3.78;98.80;101365.84;4906121;29;20083;-74
2023/02/01 05:35:30;;;;;;;0.00;0.00;;;;;;;3.83;98.09;101371.50;4885335;29;20391;-76
2023/02/01 05:37:55;;;;;;;0.00;0.00;;;;;;;3.82;98.80;101369.81;4916225;29;20107;-74
2023/02/01 05:40:21;;;;;;;0.00;0.00;;;;;;;3.76;97.97;101362.50;4908532;29;20064;-76
2023/02/01 05:42:46;;;;;;;0.08;0.08;;;;;;;3.75;98.37;101363.53;4912772;29;20059;-76
2023/02/01 05:45:12;;;;;;;0.00;0.00;;;;;;;3.75;98.02;101366.22;4860518;29;20036;-75
2023/02/01 05:47:37;;;;;;;0.00;0.00;;;;;;;3.69;98.80;101364.31;4891598;29;20056;-77
2023/02/01 05:50:04;;;;;;;0.00;0.00;;;;;;;3.77;98.74;101375.00;4892219;29;20149;-76
2023/02/01 05:52:30;;;;;;;0.00;0.00;;;;;;;3.76;98.26;101357.91;4900616;29;20040;-76
2023/02/01 05:54:56;;;;;;;0.00;0.00;;;;;;;3.90;97.97;101358.00;4896195;29;20406;-77
2023/02/01 05:57:21;;;;;;;0.00;0.00;;;;;;;3.85;98.33;101350.47;4904334;29;20127;-78
2023/02/01 05:59:48;;;;;;;0.00;0.00;;;;;;;3.90;97.99;101345.31;4906013;29;20089;-76
2023/02/01 06:02:17;;;;;;;0.00;0.00;;;;;;;3.82;98.30;101326.53;4902166;29;20039;-76
2023/02/01 06:04:42;;;;;;;0.00;0.00;;;;;;;3.84;97.87;101328.00;4905907;29;20032;-76
2023/02/01 06:07:10;;;;;;;0.00;0.00;;;;;;;3.75;97.52;101314.81;4914709;29;20058;-75
2023/02/01 06:09:36;;;;;;;0.00;0.00;;;;;;;3.64;98.55;101300.81;4900100;29;20043;-75
2023/02/01 06:12:03;;;;;;;0.00;0.00;;;;;;;3.59;98.65;101308.72;4887583;29;20036;-75
2023/02/01 06:14:29;;;;;;;0.00;0.00;;;;;;;3.53;99.74;101303.25;4903180;29;20032;-75
2023/02/01 06:16:55;;;;;;;0.00;0.00;;;;;;;3.43;99.81;101304.44;4903607;29;20043;-75
2023/02/01 06:19:21;;;;;;;0.00;0.00;;;;;;;3.37;99.75;101293.56;4895492;29;20036;-76
2023/02/01 06:21:47;;;;;;;0.00;0.00;;;;;;;3.24;100.00;101289.75;4905659;29;20040;-75
2023/02/01 06:24:13;;;;;;;0.00;0.00;;;;;;;3.19;100.00;101286.78;4909715;29;20028;-80
2023/02/01 06:26:39;;;;;;;0.00;0.00;;;;;;;3.09;100.00;101281.69;4903638;29;20052;-80
2023/02/01 06:29:11;;;;;;;0.00;0.00;;;;;;;2.95;100.00;101280.78;4893486;29;20376;-80
2023/02/01 07:07:35;;;;;;;0.00;0.00;;;;;;;2.64;100.00;101280.25;4612045;30;20077;-77
2023/02/01 07:10:00;;;;;;;0.00;0.00;;;;;;;2.69;100.00;101302.16;4653479;30;20107;-77
2023/02/01 07:12:26;;;;;;;0.10;0.10;;;;;;;2.65;100.00;101307.06;4781438;29;20030;-79
2023/02/01 07:14:51;;;;;;;0.00;0.00;;;;;;;2.53;100.00;101287.03;4815364;29;20063;-79
2023/02/01 07:17:33;;;;;;;0.00;0.00;;;;;;;2.49;100.00;101289.25;4819765;29;20043;-85
2023/02/01 07:19:59;;;;;;;0.00;0.00;;;;;;;2.57;100.00;101310.75;4807968;29;20121;-80
2023/02/01 07:22:38;;;;;;;;;;;;;;;;;;;;;
2023/02/01 07:25:09;;;;;;;0.00;0.00;;;;;;;2.54;100.00;101321.94;4828194;29;20082;-81
2023/02/01 07:27:57;;;;;;;0.00;0.00;;;;;;;2.65;100.00;101338.66;4843271;29;20125;-80
2023/02/01 07:30:32;;;;;;;0.00;0.00;;;;;;;2.40;100.00;101301.22;4879208;29;20035;-81
2023/02/01 07:33:22;;;;;;;0.00;0.00;;;;;;;2.66;100.00;101340.31;4919921;29;20028;-79
2023/02/01 07:36:20;;;;;;;;;;;;;;;;;;;;;
2023/02/01 07:38:50;;;;;;;0.00;0.00;;;;;;;2.64;100.00;101323.47;4921222;28;20031;-80
2023/02/01 07:41:32;;;;;;;0.00;0.00;;;;;;;2.84;100.00;101354.22;4907805;29;20455;-80
2023/02/01 07:44:23;;;;;;;0.00;0.00;;;;;;;2.89;100.00;101351.81;4938015;29;20023;-81
2023/02/01 07:46:56;;;;;;;0.00;0.00;;;;;;;2.91;100.00;101357.84;4906188;29;20032;-79
2023/02/01 07:49:21;;;;;;;0.00;0.00;;;;;;;2.86;100.00;101341.38;4925412;29;20023;-79
2023/02/01 07:52:00;;;;;;;;;;;;;;;;;;;;;
2023/02/01 07:54:25;;;;;;;0.00;0.00;;;;;;;2.84;100.00;101335.31;4914311;29;20032;-78
2023/02/01 07:57:03;;;;;;;;;;;;;;;;;;;;;
2023/02/01 07:59:36;;;;;;;0.00;0.00;;;;;;;3.03;100.00;101333.00;4922385;29;20030;-79
2023/02/01 08:02:34;;;;;;;0.00;0.00;;;;;;;3.03;100.00;101314.91;4915510;29;20116;-82
2023/02/01 08:05:02;;;;;;;0.00;0.00;;;;;;;3.00;100.00;101287.47;4906227;29;20028;-84
2023/02/01 08:07:27;;;;;;;0.00;0.00;;;;;;;3.09;100.00;101302.50;4910878;29;20035;-81
2023/02/01 08:09:53;;;;;;;0.00;0.00;;;;;;;3.19;100.00;101313.00;4920812;29;20467;-80
2023/02/01 08:12:18;;;;;;;0.00;0.00;;;;;;;3.17;100.00;101313.19;4914111;29;20019;-80
2023/02/01 08:15:01;;;;;;;;;;;;;;;;;;;;;
2023/02/01 08:17:32;;;;;;;0.00;0.00;;;;;;;3.31;100.00;101306.84;4923956;29;20038;-81
2023/02/01 08:20:16;;;;;;;0.00;0.00;;;;;;;3.48;100.00;101317.38;4916812;29;20076;-82
2023/02/01 08:22:44;;;;;;;0.00;0.00;;;;;;;3.72;100.00;101339.56;4915282;29;20031;-80
2023/02/01 08:25:39;;;;;;;0.10;0.10;;;;;;;3.66;100.00;101311.44;4913881;29;20471;-81
2023/02/01 08:28:04;;;;;;;0.00;0.00;;;;;;;3.92;100.00;101345.94;4913568;29;20040;-81
2023/02/01 08:30:30;;;;;;;0.00;0.00;;;;;;;3.97;100.00;101348.91;4913341;29;20489;-80
2023/02/01 08:32:55;;;;;;;0.00;0.00;;;;;;;3.91;100.00;101333.44;4926665;29;20032;-82
2023/02/01 08:38:57;;;;;;;0.00;0.00;;;;;;;4.39;100.00;101350.75;4835048;29;20033;-81
2023/02/01 08:42:50;;;;;;;0.00;0.00;;;;;;;4.74;100.00;101364.22;4836397;29;20109;-81
2023/02/01 08:44:53;;;;;;;0.00;0.00;;;;;;;4.88;100.00;101333.41;4915311;29;20093;-81
2023/02/01 09:02:18;;;;;;;0.00;0.00;;;;;;;5.60;94.95;101358.03;4836978;29;20070;-80
2023/02/01 09:04:53;;;;;;;0.00;0.00;;;;;;;5.66;93.94;101329.22;4840071;29;20049;-80
2023/02/01 09:07:21;;;;;;;0.10;0.10;;;;;;;5.81;93.30;101342.56;4835931;29;20405;-81
2023/02/01 09:09:49;;;;;;;0.00;0.00;;;;;;;6.04;92.88;101348.38;4891279;29;20040;-82
2023/02/01 09:12:22;;;;;;;0.05;0.05;;;;;;;6.43;92.40;101343.84;4886810;29;20024;-80
2023/02/01 09:14:48;;;;;;;0.00;0.00;;;;;;;7.63;88.92;101354.97;4905165;29;20074;-86
2023/02/01 09:17:17;;;;;;;0.00;0.00;;;;;;;9.05;80.75;101350.34;4928858;29;20047;-81
2023/02/01 09:19:52;;;;;;;0.00;0.00;;;;;;;10.46;75.57;101365.91;4912025;29;20077;-80
2023/02/01 09:22:27;;;;;;;0.00;0.00;;;;;;;11.38;68.74;101335.84;4901350;29;20087;-82
2023/02/01 09:24:53;;;;;;;0.00;0.00;;;;;;;12.45;65.01;101367.81;4894944;29;20061;-81
2023/02/01 09:27:19;;;;;;;0.00;0.00;;;;;;;12.64;61.38;101338.13;4897709;29;20032;-81
2023/02/01 09:30:02;;;;;;;0.00;0.00;;;;;;;12.79;60.06;101337.44;4907134;29;20106;-81
2023/02/01 09:32:47;;;;;;;0.00;0.00;;;;;;;12.86;59.90;101357.28;4912781;29;20020;-81
2023/02/01 09:35:25;;;;;;;;;;;;;;;;;;;;;
2023/02/01 09:38:00;;;;;;;0.00;0.00;;;;;;;12.81;59.15;101360.00;4904164;29;20036;-82
2023/02/01 09:40:44;;;;;;;0.00;0.00;;;;;;;12.80;58.18;101355.56;4898682;29;20083;-80
2023/02/01 09:43:55;;;;;;;0.00;0.00;;;;;;;13.10;58.78;101386.09;4884703;29;20439;-80
2023/02/01 09:46:28;;;;;;;0.05;0.05;;;;;;;13.14;57.90;101374.56;4901492;29;20043;-79
2023/02/01 09:48:58;;;;;;;0.00;0.00;;;;;;;13.54;56.89;101384.31;4908512;29;20088;-78
2023/02/01 09:51:57;;;;;;;0.00;0.00;;;;;;;14.41;54.56;101398.63;4901668;29;20021;-78
2023/02/01 09:54:57;;;;;;;;;;;;;;;;;;;;;
2023/02/01 09:57:52;;;;;;;0.00;0.00;;;;;;;14.75;52.20;101378.13;4904200;29;20034;-79
2023/02/01 10:00:23;;;;;;;0.00;0.00;;;;;;;15.31;51.09;101393.91;4895752;29;20032;-78
2023/02/01 10:02:50;;;;;;;0.00;0.00;;;;;;;15.95;50.33;101386.22;4899472;28;20123;-79
2023/02/01 10:05:26;;;;;;;0.00;0.00;;;;;;;16.30;48.96;101388.03;4873098;29;20175;-80
2023/02/01 10:08:27;;;;;;;0.00;0.00;;;;;;;16.07;49.43;101406.03;4886663;29;20467;-78
2023/02/01 10:11:32;;;;;;;0.00;0.00;;;;;;;16.10;49.25;101386.16;4866143;29;20093;-89
2023/02/01 10:14:29;;;;;;;0.00;0.00;;;;;;;17.53;46.57;101408.63;4908417;29;20028;-80
2023/02/01 10:17:23;;;;;;;0.00;0.00;;;;;;;18.37;44.56;101418.63;4892705;29;20087;-80
2023/02/01 10:20:10;;;;;;;0.00;0.00;;;;;;;18.35;43.85;101422.81;4885540;29;20115;-80
2023/02/01 10:22:43;;;;;;;0.00;0.00;;;;;;;18.41;44.02;101432.69;4906788;29;20021;-80
2023/02/01 10:25:22;;;;;;;0.00;0.00;;;;;;;18.74;43.33;101430.09;4894077;29;20054;-80
2023/02/01 10:28:11;;;;;;;0.00;0.00;;;;;;;19.29;42.12;101412.97;4889661;29;20136;-81
2023/02/01 10:30:48;;;;;;;0.00;0.00;;;;;;;20.00;41.01;101416.53;4898615;29;20031;-79
2023/02/01 10:33:34;;;;;;;0.00;0.00;;;;;;;19.46;41.31;101446.53;4897012;29;20044;-79
2023/02/01 10:36:05;;;;;;;0.00;0.00;;;;;;;19.16;41.85;101428.44;4887101;29;20035;-79
2023/02/01 10:38:33;;;;;;;0.00;0.00;;;;;;;19.78;41.08;101408.88;4892671;29;20120;-81
2023/02/01 10:41:29;;;;;;;0.00;0.00;;;;;;;20.40;39.25;101430.78;4904000;29;20016;-81
2023/02/01 10:44:07;;;;;;;0.00;0.00;;;;;;;20.54;38.82;101397.41;4886265;29;20128;-80
2023/02/01 10:46:33;;;;;;;0.00;0.00;;;;;;;20.44;39.19;101416.25;4893347;29;20666;-79
2023/02/01 10:49:07;;;;;;;0.00;0.00;;;;;;;20.66;39.00;101413.63;4877031;29;20028;-82
2023/02/01 10:51:36;;;;;;;0.00;0.00;;;;;;;21.73;37.64;101437.28;4900074;29;20027;-82
2023/02/01 10:54:26;;;;;;;;;;;;;;;;;;;;;
2023/02/01 10:56:53;;;;;;;0.00;0.00;;;;;;;21.26;38.18;101417.25;4904229;29;20024;-81
2023/02/01 10:59:36;;;;;;;0.00;0.00;;;;;;;20.34;38.31;101418.13;4902917;29;20106;-82
2023/02/01 11:02:32;;;;;;;0.00;0.00;;;;;;;16.78;44.19;101431.75;4903670;29;20383;-79
2023/02/01 11:05:10;;;;;;;0.00;0.00;;;;;;;15.12;49.21;101419.22;4900739;29;20059;-81
2023/02/01 11:07:39;;;;;;;0.00;0.00;;;;;;;14.54;51.47;101399.22;4909513;29;20113;-81
2023/02/01 11:10:58;;;;;;;0.00;0.00;;;;;;;15.06;51.16;101422.28;4916447;29;20043;-81
2023/02/01 11:13:33;;;;;;;0.00;0.00;;;;;;;14.00;52.68;101386.53;4905787;29;20434;-80
2023/02/01 11:16:18;;;;;;;0.00;0.00;;;;;;;15.02;50.95;101410.94;4909366;29;21252;-81
2023/02/01 11:18:52;;;;;;;0.00;0.00;;;;;;;14.46;52.73;101411.56;4899931;29;20068;-80
2023/02/01 11:21:35;;;;;;;0.00;0.00;;;;;;;14.63;52.82;101405.88;4909491;29;20051;-81
2023/02/01 11:24:07;;;;;;;0.00;0.00;;;;;;;13.85;54.20;101409.28;4923735;29;20024;-81
2023/02/01 11:26:48;;;;;;;0.00;0.00;;;;;;;13.54;55.41;101387.88;4896608;29;20039;-82
2023/02/01 11:29:28;;;;;;;0.00;0.00;;;;;;;13.55;55.89;101413.44;4912529;29;20024;-80
2023/02/01 11:32:32;;;;;;;;;;;;;;;;;;;;;
2023/02/01 11:35:16;;;;;;;0.00;0.00;;;;;;;12.27;61.61;101415.56;4888497;29;20036;-82
2023/02/01 11:37:43;;;;;;;0.00;0.00;;;;;;;12.38;59.48;101401.75;4910676;29;20127;-79
2023/02/01 11:40:20;;;;;;;0.00;0.00;;;;;;;12.12;62.08;101416.16;4911769;29;20036;-80
2023/02/01 11:43:13;;;;;;;;;;;;;;;;;;;;;
2023/02/01 11:45:39;;;;;;;0.00;0.00;;;;;;;12.09;62.20;101414.78;4903355;29;20043;-79
2023/02/01 11:48:14;;;;;;;0.00;0.00;;;;;;;13.54;58.77;101406.28;4890855;29;20527;-81
2023/02/01 11:50:48;;;;;;;0.00;0.00;;;;;;;14.90;54.95;101410.38;4922022;29;20028;-80
2023/02/01 11:53:26;;;;;;;0.00;0.00;;;;;;;15.44;50.74;101420.13;4911700;29;20055;-79
2023/02/01 11:56:41;;;;;;;0.00;0.00;;;;;;;14.16;51.93;101401.22;4908260;29;20023;-79
2023/02/01 11:59:23;;;;;;;0.00;0.00;;;;;;;14.71;52.72;101405.34;4902296;29;20120;-80
2023/02/01 12:02:10;;;;;;;0.00;0.00;;;;;;;15.61;48.68;101414.31;4920323;29;20025;-79
2023/02/01 12:04:57;;;;;;;0.00;0.00;;;;;;;14.46;51.77;101417.06;4895565;29;20112;-78
2023/02/01 12:07:50;;;;;;;0.00;0.00;;;;;;;13.88;53.78;101428.00;4890480;29;20419;-80
2023/02/01 12:10:56;;;;;;;0.00;0.00;;;;;;;13.60;53.59;101416.22;4903121;29;20505;-79
2023/02/01 12:13:39;;;;;;;0.00;0.00;;;;;;;14.55;54.04;101425.63;4819305;29;20038;-80
2023/02/01 12:16:19;;;;;;;0.00;0.00;;;;;;;15.24;50.92;101420.91;4902184;29;20135;-81
2023/02/01 12:19:11;;;;;;;0.00;0.00;;;;;;;13.74;54.32;101439.44;4889834;29;20072;-80
2023/02/01 12:21:45;;;;;;;0.00;0.00;;;;;;;12.44;56.61;101427.34;4906442;29;20088;-81
2023/02/01 12:25:04;;;;;;;0.00;0.00;;;;;;;11.72;59.99;101422.66;4887644;29;20398;-83
2023/02/01 12:27:38;;;;;;;0.00;0.00;;;;;;;11.06;62.88;101417.69;4898319;29;20040;-82
2023/02/01 12:37:22;;;;;;;0.00;0.00;;;;;;;11.55;61.53;101415.28;4860795;29;20956;-83
2023/02/01 12:40:10;;;;;;;0.00;0.00;;;;;;;11.05;61.94;101424.22;4864090;29;20041;-82
2023/02/01 12:42:52;;;;;;;0.00;0.00;;;;;;;10.34;64.22;101399.81;4862576;29;20040;-84
2023/02/01 12:46:18;;;;;;;;;;;;;;;;;;;;;
2023/02/01 12:49:08;;;;;;;;;;;;;;;;;;;;;
2023/02/01 12:58:55;;;;;;;0.00;0.00;;;;;;;9.71;67.61;101385.81;4830718;29;20082;-81
2023/02/01 13:02:07;;;;;;;0.10;0.10;;;;;;;9.64;68.67;101382.34;4861807;29;20140;-83
2023/02/01 13:05:09;;;;;;;;;;;;;;;;;;;;;
2023/02/01 13:10:54;;;;;;;0.00;0.00;;;;;;;9.96;71.32;101370.03;4899936;29;20044;-84
2023/02/01 13:13:43;;;;;;;0.00;0.00;;;;;;;9.98;70.26;101358.03;4893847;29;20085;-83
2023/02/01 13:16:24;;;;;;;;;;;;;;;;;;;;;
2023/02/01 13:18:52;;;;;;;0.00;0.00;;;;;;;9.77;70.33;101393.91;4903285;29;20032;-82
2023/02/01 13:21:41;;;;;;;0.00;0.00;;;;;;;9.71;69.67;101396.72;4905658;29;20471;-82
2023/02/01 13:24:38;;;;;;;;;;;;;;;;;;;;;
2023/02/01 13:31:19;;;;;;;0.00;0.00;;;;;;;9.40;71.43;101391.38;4893639;29;20398;-81
2023/02/01 13:34:01;;;;;;;0.00;0.00;;;;;;;9.10;73.02;101372.31;4908901;29;20135;-82
2023/02/01 13:36:35;;;;;;;0.00;0.00;;;;;;;9.37;72.89;101396.47;4901547;29;20029;-81
2023/02/01 13:39:26;;;;;;;0.00;0.00;;;;;;;9.17;73.36;101375.78;4914241;29;20024;-82
2023/02/01 13:42:05;;;;;;;0.00;0.00;;;;;;;9.07;73.77;101380.97;4909357;29;20032;-81
2023/02/01 13:45:08;;;;;;;0.00;0.00;;;;;;;8.87;73.95;101360.25;4914754;29;20031;-81
2023/02/01 13:47:40;;;;;;;0.00;0.00;;;;;;;8.86;74.34;101341.38;4892996;29;20112;-80
2023/02/01 13:50:43;;;;;;;0.00;0.00;;;;;;;9.13;75.36;101384.66;4908336;29;20319;-85
2023/02/01 13:53:11;;;;;;;0.00;0.00;;;;;;;9.04;75.68;101365.88;4912627;29;20033;-80
2023/02/01 13:56:24;;;;;;;0.00;0.00;;;;;;;9.04;74.62;101387.72;4915126;29;20126;-81
2023/02/01 13:58:52;;;;;;;0.00;0.00;;;;;;;8.94;74.60;101353.88;4903157;29;20372;-81